createdAt,value
2019-05-23T00:01:48.369Z,11.40
2019-05-23T00:04:19.772Z,10.80
2019-05-23T00:06:47.639Z,11.10
2019-05-23T00:09:14.309Z,11.00
2019-05-23T00:11:43.453Z,10.50
2019-05-23T00:14:24.407Z,10.30
2019-05-23T00:16:53.461Z,10.60
2019-05-23T00:19:21.429Z,10.50
2019-05-23T00:21:50.363Z,10.50
2019-05-23T00:24:17.215Z,9.90
2019-05-23T00:26:44.398Z,9.50
2019-05-23T00:29:11.761Z,9.50
2019-05-23T00:31:43.988Z,9.90
2019-05-23T00:34:11.526Z,10.30
2019-05-23T00:36:39.270Z,10.60
2019-05-23T00:39:07.232Z,10.60
2019-05-23T00:41:34.573Z,10.70
2019-05-23T00:44:01.656Z,10.60
2019-05-23T00:46:29.473Z,10.70
2019-05-23T00:48:57.644Z,10.90
2019-05-23T00:51:25.410Z,11.00
2019-05-23T00:53:52.460Z,11.10
2019-05-23T00:56:19.941Z,10.70
2019-05-23T00:58:48.393Z,10.80
2019-05-23T01:01:15.750Z,10.80
2019-05-23T01:03:42.918Z,11.00
2019-05-23T01:06:10.239Z,11.10
2019-05-23T01:08:37.712Z,11.00
2019-05-23T01:11:04.437Z,10.40
2019-05-23T01:13:31.304Z,9.70
2019-05-23T01:15:58.344Z,9.50
2019-05-23T01:18:25.905Z,10.20
2019-05-23T01:23:30.010Z,9.80
2019-05-23T01:25:56.856Z,10.30
2019-05-23T01:28:24.752Z,10.30
2019-05-23T01:30:53.873Z,10.50
2019-05-23T01:33:20.675Z,10.60
2019-05-23T01:35:47.609Z,10.70
2019-05-23T01:38:16.218Z,10.50
2019-05-23T01:40:43.353Z,10.60
2019-05-23T01:43:11.629Z,10.70
2019-05-23T01:45:39.982Z,9.70
2019-05-23T01:48:06.637Z,9.60
2019-05-23T01:50:33.405Z,9.40
2019-05-23T01:53:00.880Z,9.60
2019-05-23T01:55:27.558Z,10.10
2019-05-23T01:57:55.266Z,10.30
2019-05-23T02:00:25.069Z,10.30
2019-05-23T02:02:51.885Z,10.10
2019-05-23T02:05:18.661Z,10.30
2019-05-23T02:07:46.398Z,9.70
2019-05-23T02:10:15.390Z,9.70
2019-05-23T02:12:43.524Z,9.70
2019-05-23T02:15:11.500Z,9.80
2019-05-23T02:17:40.334Z,9.90
2019-05-23T02:20:12.513Z,10.10
2019-05-23T02:22:40.919Z,10.30
2019-05-23T02:25:09.729Z,10.30
2019-05-23T02:27:36.442Z,10.50
2019-05-23T02:30:29.927Z,10.60
2019-05-23T02:32:37.194Z,10.10
2019-05-23T02:35:07.655Z,9.70
2019-05-23T02:37:42.118Z,9.40
2019-05-23T02:40:22.301Z,10.00
2019-05-23T02:43:00.291Z,10.00
2019-05-23T02:45:29.753Z,9.60
2019-05-23T02:47:57.822Z,9.40
2019-05-23T02:50:40.201Z,9.10
2019-05-23T02:53:10.574Z,9.50
2019-05-23T02:55:38.508Z,9.60
2019-05-23T02:58:21.304Z,9.60
2019-05-23T03:00:55.491Z,9.50
2019-05-23T03:03:25.323Z,9.80
2019-05-23T03:05:52.560Z,9.70
2019-05-23T03:08:21.064Z,9.50
2019-05-23T03:10:57.681Z,9.50
2019-05-23T03:13:25.958Z,9.60
2019-05-23T03:15:53.094Z,9.60
2019-05-23T03:18:21.372Z,9.40
2019-05-23T03:20:50.354Z,9.70
2019-05-23T03:23:36.971Z,9.80
2019-05-23T03:26:28.033Z,9.60
2019-05-23T03:28:55.251Z,9.90
2019-05-23T03:31:42.465Z,9.80
2019-05-23T03:34:11.206Z,9.90
2019-05-23T03:36:38.638Z,9.90
2019-05-23T03:39:06.893Z,9.90
2019-05-23T03:41:34.854Z,9.80
2019-05-23T03:44:02.739Z,9.90
2019-05-23T03:46:31.293Z,9.90
2019-05-23T03:48:58.738Z,9.50
2019-05-23T03:51:26.431Z,9.40
2019-05-23T03:53:54.061Z,9.50
2019-05-23T03:56:22.466Z,9.50
2019-05-23T03:58:51.534Z,9.60
2019-05-23T04:01:20.208Z,9.60
2019-05-23T04:03:47.645Z,9.90
2019-05-23T04:06:14.713Z,9.60
2019-05-23T04:08:41.355Z,9.50
2019-05-23T04:11:08.222Z,9.60
2019-05-23T04:13:35.650Z,9.50
2019-05-23T04:16:03.281Z,9.40
2019-05-23T04:18:30.359Z,9.80
2019-05-23T04:20:57.042Z,9.90
2019-05-23T04:23:23.785Z,9.60
2019-05-23T04:25:51.353Z,10.00
2019-05-23T04:28:18.353Z,9.80
2019-05-23T04:30:45.120Z,10.00
2019-05-23T04:33:11.804Z,10.10
2019-05-23T04:35:38.739Z,9.50
2019-05-23T04:38:06.015Z,9.80
2019-05-23T04:40:33.138Z,9.90
2019-05-23T04:42:59.821Z,10.10
2019-05-23T04:45:29.000Z,10.30
2019-05-23T04:47:56.128Z,9.40
2019-05-23T04:50:23.303Z,10.10
2019-05-23T04:52:50.145Z,9.80
2019-05-23T04:55:18.106Z,10.00
2019-05-23T04:57:46.473Z,10.00
2019-05-23T05:00:14.979Z,9.90
2019-05-23T05:02:43.168Z,10.30
2019-05-23T05:05:11.295Z,9.60
2019-05-23T05:07:39.553Z,10.20
2019-05-23T05:10:09.437Z,10.20
2019-05-23T05:12:36.822Z,10.10
2019-05-23T05:15:04.844Z,10.50
2019-05-23T05:17:31.618Z,10.40
2019-05-23T05:19:58.657Z,10.70
2019-05-23T05:22:25.737Z,10.60
2019-05-23T05:24:52.428Z,10.40
2019-05-23T05:27:20.255Z,10.50
2019-05-23T05:29:46.872Z,10.60
2019-05-23T05:32:15.285Z,10.20
2019-05-23T05:34:41.903Z,10.50
2019-05-23T05:37:08.615Z,10.40
2019-05-23T05:39:35.942Z,10.60
2019-05-23T05:42:03.062Z,11.00
2019-05-23T05:44:29.800Z,10.90
2019-05-23T05:46:56.538Z,11.00
2019-05-23T05:49:24.392Z,10.80
2019-05-23T05:51:51.427Z,11.00
2019-05-23T05:54:18.714Z,11.30
2019-05-23T05:56:45.561Z,11.20
2019-05-23T05:59:12.346Z,11.30
2019-05-23T06:01:39.910Z,11.50
2019-05-23T06:04:06.710Z,11.50
2019-05-23T06:06:37.745Z,11.70
2019-05-23T06:09:10.797Z,11.50
2019-05-23T06:11:38.140Z,11.60
2019-05-23T06:14:06.024Z,11.70
2019-05-23T06:16:34.168Z,11.80
2019-05-23T06:19:00.858Z,11.80
2019-05-23T06:21:28.321Z,11.80
2019-05-23T06:23:55.535Z,12.00
2019-05-23T06:26:22.310Z,11.70
2019-05-23T06:28:49.321Z,11.60
2019-05-23T06:31:16.584Z,12.00
2019-05-23T06:33:44.139Z,12.20
2019-05-23T06:36:11.614Z,12.50
2019-05-23T06:38:38.451Z,12.50
2019-05-23T06:41:05.234Z,12.00
2019-05-23T06:43:34.370Z,12.10
2019-05-23T06:46:01.150Z,12.40
2019-05-23T06:48:28.764Z,12.60
2019-05-23T06:50:55.860Z,12.40
2019-05-23T06:53:22.625Z,12.60
2019-05-23T06:55:49.393Z,12.80
2019-05-23T06:58:16.117Z,12.60
2019-05-23T07:00:43.311Z,12.90
2019-05-23T07:03:09.920Z,13.10
2019-05-23T07:05:37.220Z,13.10
2019-05-23T07:08:04.357Z,13.10
2019-05-23T07:10:31.040Z,13.00
2019-05-23T07:12:57.711Z,13.40
2019-05-23T07:15:26.436Z,13.70
2019-05-23T07:17:53.318Z,13.80
2019-05-23T07:20:20.853Z,14.00
2019-05-23T07:22:47.684Z,14.00
2019-05-23T07:25:15.070Z,13.80
2019-05-23T07:27:42.086Z,14.00
2019-05-23T07:30:23.865Z,14.00
2019-05-23T07:32:51.396Z,13.90
2019-05-23T07:35:19.073Z,14.30
2019-05-23T07:37:45.901Z,14.30
2019-05-23T07:40:13.259Z,14.40
2019-05-23T07:42:39.976Z,14.30
2019-05-23T07:45:09.451Z,14.40
2019-05-23T07:47:39.929Z,14.50
2019-05-23T07:50:07.834Z,14.80
2019-05-23T07:52:35.014Z,14.90
2019-05-23T07:55:03.550Z,15.00
2019-05-23T07:57:30.737Z,15.20
2019-05-23T07:59:57.517Z,15.10
2019-05-23T08:02:31.321Z,15.40
2019-05-23T08:04:58.880Z,15.50
2019-05-23T08:07:25.760Z,15.40
2019-05-23T08:09:52.510Z,15.60
2019-05-23T08:12:19.581Z,15.30
2019-05-23T08:15:04.576Z,15.70
2019-05-23T08:17:26.454Z,15.70
2019-05-23T08:19:53.102Z,15.40
2019-05-23T08:22:19.863Z,15.90
2019-05-23T08:24:50.928Z,16.20
2019-05-23T08:27:15.590Z,16.60
2019-05-23T08:29:42.515Z,16.30
2019-05-23T08:32:09.410Z,16.20
2019-05-23T08:34:41.181Z,16.20
2019-05-23T08:37:06.831Z,16.60
2019-05-23T08:39:34.571Z,17.00
2019-05-23T08:42:02.119Z,16.70
2019-05-23T08:44:29.471Z,17.00
2019-05-23T08:46:56.349Z,17.00
2019-05-23T08:49:23.508Z,17.20
2019-05-23T08:51:50.275Z,17.10
2019-05-23T08:54:17.361Z,17.10
2019-05-23T08:56:44.336Z,16.90
2019-05-23T08:59:11.979Z,17.30
2019-05-23T09:01:38.765Z,17.50
2019-05-23T09:04:05.813Z,17.40
2019-05-23T09:06:33.961Z,17.70
2019-05-23T09:09:01.531Z,17.80
2019-05-23T09:11:28.368Z,18.00
2019-05-23T09:13:55.366Z,18.00
2019-05-23T09:16:22.646Z,18.10
2019-05-23T09:18:49.426Z,18.30
2019-05-23T09:21:16.059Z,18.10
2019-05-23T09:23:42.841Z,18.20
2019-05-23T09:26:09.591Z,18.20
2019-05-23T09:28:36.610Z,18.50
2019-05-23T09:31:04.273Z,18.20
2019-05-23T09:33:31.032Z,18.70
2019-05-23T09:35:58.369Z,18.40
2019-05-23T09:38:25.442Z,18.50
2019-05-23T09:40:52.090Z,18.60
2019-05-23T09:43:18.752Z,18.50
2019-05-23T09:45:45.398Z,18.60
2019-05-23T09:48:12.187Z,18.80
2019-05-23T09:50:39.231Z,19.10
2019-05-23T09:53:05.991Z,19.50
2019-05-23T09:55:33.317Z,19.50
2019-05-23T09:58:00.128Z,19.20
2019-05-23T10:00:26.862Z,19.10
2019-05-23T10:02:53.938Z,19.60
2019-05-23T10:05:40.296Z,19.70
2019-05-23T10:07:49.577Z,19.60
2019-05-23T10:10:17.256Z,19.50
2019-05-23T10:12:43.891Z,19.80
2019-05-23T10:15:27.934Z,19.80
2019-05-23T10:17:54.873Z,19.80
2019-05-23T10:20:25.896Z,19.50
2019-05-23T10:22:52.541Z,19.70
2019-05-23T10:25:19.318Z,20.10
2019-05-23T10:27:46.129Z,19.80
2019-05-23T10:30:14.926Z,20.20
2019-05-23T10:32:41.658Z,20.50
2019-05-23T10:35:11.900Z,20.20
2019-05-23T10:37:38.606Z,20.50
2019-05-23T10:40:07.099Z,20.50
2019-05-23T10:42:34.134Z,19.80
2019-05-23T10:45:00.966Z,19.40
2019-05-23T10:47:27.871Z,19.10
2019-05-23T10:49:54.849Z,18.80
2019-05-23T10:52:21.891Z,18.80
2019-05-23T10:54:48.577Z,19.30
2019-05-23T10:57:15.433Z,19.20
2019-05-23T10:59:42.234Z,19.20
2019-05-23T11:02:10.794Z,19.10
2019-05-23T11:04:37.563Z,18.90
2019-05-23T11:07:05.034Z,19.00
2019-05-23T11:09:37.644Z,18.80
2019-05-23T11:12:01.258Z,18.90
2019-05-23T11:14:28.150Z,19.60
2019-05-23T11:16:55.333Z,20.10
2019-05-23T11:19:22.464Z,20.40
2019-05-23T11:21:49.149Z,19.90
2019-05-23T11:24:16.598Z,19.80
2019-05-23T11:26:43.969Z,20.50
2019-05-23T11:29:10.656Z,20.40
2019-05-23T11:31:37.440Z,20.20
2019-05-23T11:34:04.164Z,19.90
2019-05-23T11:36:36.178Z,19.70
2019-05-23T11:38:59.385Z,19.70
2019-05-23T11:41:26.592Z,19.80
2019-05-23T11:43:53.324Z,20.20
2019-05-23T11:46:25.412Z,20.30
2019-05-23T11:48:52.150Z,20.30
2019-05-23T11:51:22.338Z,20.30
2019-05-23T11:54:05.910Z,20.10
2019-05-23T11:56:17.229Z,19.80
2019-05-23T11:58:45.153Z,19.70
2019-05-23T12:01:20.680Z,19.60
2019-05-23T12:03:46.024Z,19.50
2019-05-23T12:06:13.450Z,19.50
2019-05-23T12:08:40.226Z,19.50
2019-05-23T12:11:07.048Z,19.40
2019-05-23T12:13:33.729Z,19.40
2019-05-23T12:16:00.553Z,19.30
2019-05-23T12:18:27.853Z,19.20
2019-05-23T12:20:59.416Z,19.20
2019-05-23T12:23:24.365Z,19.20
2019-05-23T12:25:51.349Z,19.20
2019-05-23T12:28:18.655Z,19.20
2019-05-23T12:30:45.468Z,19.20
2019-05-23T12:33:12.159Z,19.40
2019-05-23T12:35:38.880Z,19.30
2019-05-23T12:38:05.948Z,19.60
2019-05-23T12:40:33.071Z,20.20
2019-05-23T12:42:59.761Z,20.30
2019-05-23T12:45:26.500Z,20.30
2019-05-23T12:48:00.877Z,20.40
2019-05-23T12:50:29.434Z,20.30
2019-05-23T12:52:56.224Z,20.50
2019-05-23T12:55:23.600Z,20.70
2019-05-23T12:57:50.429Z,20.90
2019-05-23T13:00:22.243Z,21.10
2019-05-23T13:02:48.865Z,21.30
2019-05-23T13:05:15.933Z,21.70
2019-05-23T13:07:42.594Z,21.50
2019-05-23T13:10:09.687Z,21.30
2019-05-23T13:12:36.674Z,21.30
2019-05-23T13:15:06.678Z,21.80
2019-05-23T13:17:33.301Z,21.60
2019-05-23T13:20:00.075Z,21.20
2019-05-23T13:22:26.834Z,21.00
2019-05-23T13:24:53.650Z,20.90
2019-05-23T13:27:20.740Z,20.80
2019-05-23T13:29:47.544Z,20.70
2019-05-23T13:32:14.198Z,20.50
2019-05-23T13:34:40.893Z,20.50
2019-05-23T13:37:09.615Z,20.70
2019-05-23T13:39:36.517Z,21.10
2019-05-23T13:42:03.354Z,21.20
2019-05-23T13:44:35.246Z,21.60
2019-05-23T13:46:58.692Z,21.60
2019-05-23T13:49:25.780Z,21.00
2019-05-23T13:51:52.935Z,21.00
2019-05-23T13:54:20.489Z,21.10
2019-05-23T13:56:47.919Z,20.90
2019-05-23T13:59:15.072Z,20.90
2019-05-23T14:01:41.785Z,20.70
2019-05-23T14:04:08.745Z,20.60
2019-05-23T14:06:35.518Z,20.70
2019-05-23T14:09:02.561Z,20.70
2019-05-23T14:11:29.423Z,20.60
2019-05-23T14:14:00.606Z,20.70
2019-05-23T14:16:26.693Z,20.60
2019-05-23T14:18:53.420Z,21.00
2019-05-23T14:21:20.246Z,21.30
2019-05-23T14:23:47.056Z,21.90
2019-05-23T14:26:13.987Z,21.50
2019-05-23T14:28:41.076Z,21.30
2019-05-23T14:31:09.845Z,21.50
2019-05-23T14:33:47.303Z,21.20
2019-05-23T14:36:25.109Z,21.40
2019-05-23T14:38:53.789Z,21.30
2019-05-23T14:41:20.578Z,21.50
2019-05-23T14:43:48.114Z,21.50
2019-05-23T14:46:17.910Z,21.50
2019-05-23T14:48:49.330Z,21.50
2019-05-23T14:51:24.330Z,21.40
2019-05-23T14:53:59.365Z,21.20
2019-05-23T14:56:28.446Z,21.00
2019-05-23T14:58:55.181Z,21.10
2019-05-23T15:01:24.149Z,20.80
2019-05-23T15:03:50.891Z,20.80
2019-05-23T15:06:18.368Z,20.70
2019-05-23T15:08:50.899Z,20.80
2019-05-23T15:11:13.814Z,20.90
2019-05-23T15:13:40.469Z,20.90
2019-05-23T15:16:08.264Z,21.20
2019-05-23T15:18:35.001Z,21.20
2019-05-23T15:21:02.309Z,21.00
2019-05-23T15:23:29.019Z,21.10
2019-05-23T15:25:55.839Z,21.00
2019-05-23T15:28:22.548Z,20.80
2019-05-23T15:30:49.698Z,20.70
2019-05-23T15:33:16.899Z,20.80
2019-05-23T15:35:43.669Z,20.90
2019-05-23T15:38:12.308Z,20.70
2019-05-23T15:40:38.901Z,20.70
2019-05-23T15:43:09.526Z,20.90
2019-05-23T15:45:34.368Z,21.00
2019-05-23T15:48:01.159Z,20.90
2019-05-23T15:50:32.766Z,20.80
2019-05-23T15:53:01.753Z,20.70
2019-05-23T15:55:33.037Z,20.60
2019-05-23T15:58:04.418Z,20.50
2019-05-23T16:00:51.953Z,20.50
2019-05-23T16:03:23.399Z,20.40
2019-05-23T16:05:50.066Z,20.30
2019-05-23T16:08:17.234Z,20.40
2019-05-23T16:11:04.358Z,20.50
2019-05-23T16:13:31.234Z,20.60
2019-05-23T16:15:57.870Z,20.50
2019-05-23T16:18:25.322Z,20.50
2019-05-23T16:20:52.008Z,20.60
2019-05-23T16:23:19.834Z,20.50
2019-05-23T16:25:46.924Z,20.50
2019-05-23T16:28:13.926Z,20.60
2019-05-23T16:30:40.821Z,20.50
2019-05-23T16:33:07.611Z,20.60
2019-05-23T16:35:34.531Z,20.50
2019-05-23T16:38:01.394Z,20.30
2019-05-23T16:40:28.137Z,20.30
2019-05-23T16:42:54.870Z,20.40
2019-05-23T16:45:21.714Z,20.50
2019-05-23T16:47:48.373Z,20.30
2019-05-23T16:50:15.351Z,20.30
2019-05-23T16:52:41.968Z,20.40
2019-05-23T16:55:25.901Z,20.50
2019-05-23T16:57:54.470Z,20.40
2019-05-23T17:00:40.983Z,20.40
2019-05-23T17:03:09.921Z,20.40
2019-05-23T17:05:55.129Z,20.20
2019-05-23T17:08:26.475Z,20.30
2019-05-23T17:11:00.877Z,20.30
2019-05-23T17:13:32.664Z,20.30
2019-05-23T17:16:18.034Z,20.30
2019-05-23T17:18:46.914Z,20.30
2019-05-23T17:21:19.011Z,20.20
2019-05-23T17:23:47.945Z,20.10
2019-05-23T17:26:19.095Z,20.10
2019-05-23T17:28:47.660Z,20.10
2019-05-23T17:31:16.429Z,20.00
2019-05-23T17:33:44.461Z,20.00
2019-05-23T17:36:11.262Z,20.00
2019-05-23T17:38:38.020Z,19.90
2019-05-23T17:41:05.326Z,19.90
2019-05-23T17:43:32.138Z,19.80
2019-05-23T17:45:58.783Z,19.80
2019-05-23T17:48:25.461Z,19.80
2019-05-23T17:50:52.394Z,19.80
2019-05-23T17:53:19.610Z,19.70
2019-05-23T17:55:46.699Z,19.70
2019-05-23T17:58:13.568Z,19.70
2019-05-23T18:00:41.981Z,19.70
2019-05-23T18:03:09.132Z,19.70
2019-05-23T18:05:36.389Z,19.60
2019-05-23T18:08:04.732Z,19.60
2019-05-23T18:10:43.850Z,19.50
2019-05-23T18:13:01.241Z,19.40
2019-05-23T18:15:28.172Z,19.50
2019-05-23T18:17:58.803Z,19.40
2019-05-23T18:20:23.863Z,19.10
2019-05-23T18:22:50.887Z,19.10
2019-05-23T18:25:17.824Z,19.20
2019-05-23T18:27:45.193Z,19.00
2019-05-23T18:30:26.293Z,18.90
2019-05-23T18:32:53.690Z,18.70
2019-05-23T18:35:20.755Z,18.60
2019-05-23T18:37:47.480Z,18.60
2019-05-23T18:40:14.769Z,18.60
2019-05-23T18:42:42.028Z,18.50
2019-05-23T18:45:09.970Z,18.10
2019-05-23T18:47:39.427Z,18.10
2019-05-23T18:50:07.499Z,17.90
2019-05-23T18:52:34.185Z,17.80
2019-05-23T18:55:00.853Z,17.90
2019-05-23T18:57:28.538Z,18.00
2019-05-23T18:59:55.603Z,17.90
2019-05-23T19:02:22.689Z,17.70
2019-05-23T19:04:50.657Z,17.70
2019-05-23T19:07:17.713Z,17.60
2019-05-23T19:09:45.075Z,17.70
2019-05-23T19:12:11.845Z,17.70
2019-05-23T19:14:38.540Z,17.80
2019-05-23T19:17:05.823Z,17.80
2019-05-23T19:19:32.562Z,17.50
2019-05-23T19:21:59.321Z,17.50
2019-05-23T19:24:26.010Z,17.60
2019-05-23T19:26:53.429Z,17.40
2019-05-23T19:29:21.691Z,17.20
2019-05-23T19:31:48.435Z,17.10
2019-05-23T19:34:15.094Z,17.10
2019-05-23T19:36:42.018Z,16.80
2019-05-23T19:39:09.042Z,16.60
2019-05-23T19:41:37.824Z,16.50
2019-05-23T19:44:04.591Z,16.50
2019-05-23T19:46:31.455Z,16.50
2019-05-23T19:48:59.304Z,16.50
2019-05-23T19:51:27.158Z,16.50
2019-05-23T19:53:54.408Z,16.30
2019-05-23T19:56:21.396Z,16.30
2019-05-23T19:58:48.708Z,16.20
2019-05-23T20:01:15.864Z,16.30
2019-05-23T20:03:42.537Z,16.40
2019-05-23T20:06:10.179Z,16.30
2019-05-23T20:08:37.320Z,16.40
2019-05-23T20:11:06.010Z,16.80
2019-05-23T20:13:32.657Z,17.00
2019-05-23T20:15:59.779Z,16.80
2019-05-23T20:18:27.031Z,16.40
2019-05-23T20:20:54.090Z,16.30
2019-05-23T20:23:21.431Z,16.40
2019-05-23T20:25:48.465Z,16.30
2019-05-23T20:28:15.526Z,16.40
2019-05-23T20:30:46.657Z,16.10
2019-05-23T20:33:14.029Z,16.40
2019-05-23T20:35:40.654Z,16.60
2019-05-23T20:38:07.533Z,16.70
2019-05-23T20:40:34.273Z,16.80
2019-05-23T20:43:02.675Z,16.60
2019-05-23T20:45:29.600Z,16.40
2019-05-23T20:47:56.261Z,16.00
2019-05-23T20:50:22.996Z,16.30
2019-05-23T20:52:50.093Z,16.30
2019-05-23T20:55:16.811Z,16.10
2019-05-23T20:57:44.496Z,16.30
2019-05-23T21:00:13.373Z,15.80
2019-05-23T21:02:40.536Z,15.60
2019-05-23T21:05:07.385Z,15.70
2019-05-23T21:07:34.060Z,16.00
2019-05-23T21:10:00.790Z,16.10
2019-05-23T21:12:30.419Z,15.80
2019-05-23T21:14:55.942Z,15.50
2019-05-23T21:17:23.709Z,15.90
2019-05-23T21:19:50.381Z,15.90
2019-05-23T21:22:17.083Z,15.50
2019-05-23T21:24:43.809Z,15.30
2019-05-23T21:27:10.470Z,15.30
2019-05-23T21:29:38.516Z,15.60
2019-05-23T21:32:05.796Z,15.40
2019-05-23T21:34:32.407Z,15.20
2019-05-23T21:36:59.149Z,15.70
2019-05-23T21:39:26.121Z,15.50
2019-05-23T21:41:52.799Z,15.80
2019-05-23T21:44:19.619Z,15.70
2019-05-23T21:46:46.359Z,15.70
2019-05-23T21:49:13.080Z,15.60
2019-05-23T21:51:39.734Z,15.70
2019-05-23T21:54:06.380Z,15.70
2019-05-23T21:56:33.353Z,15.70
2019-05-23T21:58:59.995Z,15.60
2019-05-23T22:01:28.634Z,15.60
2019-05-23T22:04:16.136Z,15.20
2019-05-23T22:06:48.371Z,15.50
2019-05-23T22:09:15.181Z,15.60
2019-05-23T22:11:41.994Z,15.60
2019-05-23T22:14:08.667Z,15.50
2019-05-23T22:16:36.145Z,15.20
2019-05-23T22:19:05.109Z,15.50
2019-05-23T22:21:31.810Z,15.30
2019-05-23T22:23:59.141Z,15.10
2019-05-23T22:26:25.993Z,15.40
2019-05-23T22:28:52.769Z,15.50
2019-05-23T22:31:20.440Z,15.50
2019-05-23T22:33:57.776Z,15.50
2019-05-23T22:36:25.700Z,15.60
2019-05-23T22:38:52.310Z,15.50
2019-05-23T22:41:19.310Z,15.00
2019-05-23T22:43:46.237Z,14.60
2019-05-23T22:46:13.328Z,15.00
2019-05-23T22:48:39.941Z,14.70
2019-05-23T22:51:06.629Z,14.70
2019-05-23T22:53:33.252Z,14.80
2019-05-23T22:55:59.912Z,14.90
2019-05-23T22:58:26.565Z,15.20
2019-05-23T23:00:53.337Z,15.20
2019-05-23T23:03:19.956Z,14.60
2019-05-23T23:05:46.685Z,14.40
2019-05-23T23:08:13.653Z,14.50
2019-05-23T23:10:40.292Z,14.80
2019-05-23T23:13:07.026Z,14.80
2019-05-23T23:15:34.051Z,14.50
2019-05-23T23:18:00.997Z,14.70
2019-05-23T23:20:27.634Z,14.60
2019-05-23T23:22:54.325Z,14.60
2019-05-23T23:25:20.973Z,14.80
2019-05-23T23:27:47.632Z,14.90
2019-05-23T23:30:16.509Z,14.90
2019-05-23T23:32:45.020Z,14.70
2019-05-23T23:35:11.808Z,14.40
2019-05-23T23:37:38.580Z,14.50
2019-05-23T23:40:05.758Z,13.90
2019-05-23T23:42:32.492Z,13.70
2019-05-23T23:45:17.617Z,14.00
2019-05-23T23:48:02.937Z,13.90
2019-05-23T23:50:48.303Z,14.20
2019-05-23T23:53:33.518Z,14.10
2019-05-23T23:56:18.942Z,13.80
2019-05-23T23:58:45.625Z,13.80
